Time;durP1;ratioP1;P1;durP2;ratioP2;P2;SDS_P1;SDS_P2;PMS_P1;PMS_P2;Temp;Humidity;BMP_temperature;BMP_pressure;BME280_temperature;BME280_humidity;BME280_pressure;Samples;Min_cycle;Max_cycle;Signal;HPM_P1;HPM_P2
2023/06/15 00:00:43;;;;;;;;;10.25;8.25;;;;;;;;4977436;28;46001;-87
2023/06/15 00:03:09;;;;;;;;;15.00;10.67;;;;;;;;4977757;28;45326;-87
2023/06/15 00:05:34;;;;;;;;;11.75;9.25;;;;;;;;4977612;28;45436;-86
2023/06/15 00:07:59;;;;;;;;;14.50;9.50;;;;;;;;4977262;28;45370;-87
2023/06/15 00:10:24;;;;;;;;;15.00;10.00;;;;;;;;4977097;28;46820;-87
2023/06/15 00:12:50;;;;;;;;;10.75;8.75;;;;;;;;4977403;28;45430;-87
2023/06/15 00:15:15;;;;;;;;;14.00;9.67;;;;;;;;4976318;28;45351;-86
2023/06/15 00:17:41;;;;;;;;;9.25;9.25;;;;;;;;4977499;28;45293;-86
2023/06/15 00:20:12;;;;;;;;;10.50;9.75;;;;;;;;4975788;28;47484;-87
2023/06/15 00:22:38;;;;;;;;;11.25;9.75;;;;;;;;4977275;28;45363;-87
2023/06/15 00:25:05;;;;;;;;;12.25;9.25;;;;;;;;4977191;28;45468;-86
2023/06/15 00:27:30;;;;;;;;;11.00;9.50;;;;;;;;4977565;28;45405;-87
2023/06/15 00:29:55;;;;;;;;;15.00;10.33;;;;;;;;4976384;28;45660;-86
2023/06/15 00:32:20;;;;;;;;;16.33;11.00;;;;;;;;4977110;28;45540;-86
2023/06/15 00:34:45;;;;;;;;;11.67;9.00;;;;;;;;4977353;28;45434;-86
2023/06/15 00:37:11;;;;;;;;;12.67;11.00;;;;;;;;4977132;28;45401;-86
2023/06/15 00:39:36;;;;;;;;;13.67;12.00;;;;;;;;4976535;28;46158;-86
2023/06/15 00:42:01;;;;;;;;;11.33;10.33;;;;;;;;4976908;28;45405;-86
2023/06/15 00:44:26;;;;;;;;;16.00;11.67;;;;;;;;4975531;28;45510;-86
2023/06/15 00:46:52;;;;;;;;;9.33;8.00;;;;;;;;4976929;28;45492;-86
2023/06/15 00:49:17;;;;;;;;;13.25;9.00;;;;;;;;4976485;28;45612;-86
2023/06/15 00:51:42;;;;;;;;;18.50;8.75;;;;;;;;4976798;28;45395;-87
2023/06/15 00:54:08;;;;;;;;;15.75;11.50;;;;;;;;4976497;28;45611;-88
2023/06/15 00:56:35;;;;;;;;;14.75;9.00;;;;;;;;4975431;28;45498;-87
2023/06/15 00:59:00;;;;;;;;;10.00;8.25;;;;;;;;4977306;28;46346;-87
2023/06/15 01:01:26;;;;;;;;;11.50;8.75;;;;;;;;4977717;28;45365;-88
2023/06/15 01:03:51;;;;;;;;;10.00;8.75;;;;;;;;4977079;28;45307;-88
2023/06/15 01:06:18;;;;;;;;;14.67;10.33;;;;;;;;4976888;28;45212;-88
2023/06/15 01:08:47;;;;;;;;;10.00;9.50;;;;;;;;4976319;28;46209;-88
2023/06/15 01:11:13;;;;;;;;;13.00;12.25;;;;;;;;4976468;28;45401;-88
2023/06/15 01:13:39;;;;;;;;;18.50;11.00;;;;;;;;4976482;28;45392;-87
2023/06/15 01:16:06;;;;;;;;;8.75;8.75;;;;;;;;4976451;28;45316;-88
2023/06/15 01:18:33;;;;;;;;;13.50;10.50;;;;;;;;4976040;28;46222;-87
2023/06/15 01:21:01;;;;;;;;;16.50;13.25;;;;;;;;4976040;28;45900;-87
2023/06/15 01:23:40;;;;;;;;;15.50;10.00;;;;;;;;4976619;28;45481;-86
2023/06/15 01:26:06;;;;;;;;;15.00;11.25;;;;;;;;4976503;28;45564;-87
2023/06/15 01:28:33;;;;;;;;;14.75;10.75;;;;;;;;4975878;28;45363;-87
2023/06/15 01:30:58;;;;;;;;;13.50;11.75;;;;;;;;4976410;28;46023;-87
2023/06/15 01:33:24;;;;;;;;;13.50;11.00;;;;;;;;4976436;28;45882;-86
2023/06/15 01:35:50;;;;;;;;;12.00;12.00;;;;;;;;4975787;28;45353;-87
2023/06/15 01:38:17;;;;;;;;;13.25;10.75;;;;;;;;4975920;28;46576;-86
2023/06/15 01:40:43;;;;;;;;;17.25;12.00;;;;;;;;4975205;28;45322;-87
2023/06/15 01:43:11;;;;;;;;;16.25;11.25;;;;;;;;4976164;28;45387;-87
2023/06/15 01:45:37;;;;;;;;;12.75;12.50;;;;;;;;4976350;28;45426;-87
2023/06/15 01:48:02;;;;;;;;;14.75;11.50;;;;;;;;4975772;28;45480;-87
2023/06/15 01:50:30;;;;;;;;;16.75;13.50;;;;;;;;4975359;28;45436;-87
2023/06/15 01:52:55;;;;;;;;;13.75;12.25;;;;;;;;4976186;28;45458;-87
2023/06/15 01:55:20;;;;;;;;;14.33;11.00;;;;;;;;4975715;28;45346;-87
2023/06/15 01:57:46;;;;;;;;;16.00;13.00;;;;;;;;4974618;28;46861;-87
2023/06/15 02:00:12;;;;;;;;;14.25;11.25;;;;;;;;4975624;28;45438;-86
2023/06/15 02:02:37;;;;;;;;;15.50;12.25;;;;;;;;4975903;28;45373;-87
2023/06/15 02:05:03;;;;;;;;;16.50;12.75;;;;;;;;4975826;28;45265;-87
2023/06/15 02:07:28;;;;;;;;;15.50;10.00;;;;;;;;4974339;28;47041;-87
2023/06/15 02:09:53;;;;;;;;;18.50;13.50;;;;;;;;4975406;28;45412;-87
2023/06/15 02:12:19;;;;;;;;;14.00;13.00;;;;;;;;4975884;28;45317;-87
2023/06/15 02:14:47;;;;;;;;;13.75;11.50;;;;;;;;4975628;28;45460;-86
2023/06/15 02:17:13;;;;;;;;;13.75;11.00;;;;;;;;4975616;28;46390;-86
2023/06/15 02:19:38;;;;;;;;;17.67;12.00;;;;;;;;4974976;28;45371;-86
2023/06/15 02:22:03;;;;;;;;;12.00;10.67;;;;;;;;4975847;28;45318;-86
2023/06/15 02:24:28;;;;;;;;;17.67;10.00;;;;;;;;4975622;28;45336;-86
2023/06/15 02:26:53;;;;;;;;;11.67;10.67;;;;;;;;4975484;28;46335;-87
2023/06/15 02:29:19;;;;;;;;;15.33;11.00;;;;;;;;4975298;28;45540;-87
2023/06/15 02:31:44;;;;;;;;;21.00;12.67;;;;;;;;4975766;28;45392;-87
2023/06/15 02:34:09;;;;;;;;;15.67;9.00;;;;;;;;4974159;28;45630;-86
2023/06/15 02:36:35;;;;;;;;;11.00;9.25;;;;;;;;4975269;28;46842;-86
2023/06/15 02:39:00;;;;;;;;;14.50;12.00;;;;;;;;4975247;28;45382;-87
2023/06/15 02:41:25;;;;;;;;;17.00;9.25;;;;;;;;4975511;28;45369;-87
2023/06/15 02:43:52;;;;;;;;;18.67;10.67;;;;;;;;4975249;28;45350;-86
2023/06/15 02:46:17;;;;;;;;;14.00;13.00;;;;;;;;4975016;28;46458;-86
2023/06/15 02:48:44;;;;;;;;;12.75;8.00;;;;;;;;4974701;28;45660;-86
2023/06/15 02:51:09;;;;;;;;;14.75;10.25;;;;;;;;4975566;28;45323;-86
2023/06/15 02:53:35;;;;;;;;;21.75;12.00;;;;;;;;4978765;28;45499;-86
2023/06/15 02:56:02;;;;;;;;;14.50;13.25;;;;;;;;4978498;28;46648;-87
2023/06/15 02:58:32;;;;;;;;;14.00;12.00;;;;;;;;4978429;28;45299;-86
2023/06/15 03:00:57;;;;;;;;;10.75;10.00;;;;;;;;4978647;28;45361;-87
2023/06/15 03:03:27;;;;;;;;;17.25;11.25;;;;;;;;4976903;28;45525;-87
2023/06/15 03:05:53;;;;;;;;;13.00;9.50;;;;;;;;4977403;28;46191;-87
2023/06/15 03:08:18;;;;;;;;;13.25;11.00;;;;;;;;4977934;28;45402;-86
2023/06/15 03:10:44;;;;;;;;;17.00;13.00;;;;;;;;4978543;28;45484;-87
2023/06/15 03:13:09;;;;;;;;;16.25;14.25;;;;;;;;4978422;28;45410;-88
2023/06/15 03:15:35;;;;;;;;;15.33;11.33;;;;;;;;4976997;28;47893;-87
2023/06/15 03:18:00;;;;;;;;;13.75;11.25;;;;;;;;4977627;28;45500;-87
2023/06/15 03:20:32;;;;;;;;;15.75;11.00;;;;;;;;4978102;28;45532;-87
2023/06/15 03:22:57;;;;;;;;;16.00;9.75;;;;;;;;4978585;28;45279;-88
2023/06/15 03:25:22;;;;;;;;;12.67;11.33;;;;;;;;4976922;28;47891;-87
2023/06/15 03:27:49;;;;;;;;;20.50;15.50;;;;;;;;4977919;28;45464;-87
2023/06/15 03:30:14;;;;;;;;;14.50;11.00;;;;;;;;4978043;28;45303;-87
2023/06/15 03:32:40;;;;;;;;;14.25;12.75;;;;;;;;4978144;28;45288;-88
2023/06/15 03:35:06;;;;;;;;;12.50;11.50;;;;;;;;4978119;28;46269;-87
2023/06/15 03:37:31;;;;;;;;;15.00;11.75;;;;;;;;4978100;28;45469;-87
2023/06/15 03:39:56;;;;;;;;;15.00;11.67;;;;;;;;4977933;28;45497;-86
2023/06/15 03:42:21;;;;;;;;;15.67;13.33;;;;;;;;4978058;28;45267;-86
2023/06/15 03:44:46;;;;;;;;;17.33;12.67;;;;;;;;4977754;28;46065;-87
2023/06/15 03:47:12;;;;;;;;;10.33;9.33;;;;;;;;4977499;28;45393;-88
2023/06/15 03:49:37;;;;;;;;;14.50;12.25;;;;;;;;4977907;28;45417;-87
2023/06/15 03:52:02;;;;;;;;;21.00;16.67;;;;;;;;4977986;28;45231;-87
2023/06/15 03:54:28;;;;;;;;;13.25;12.00;;;;;;;;4977658;28;46046;-86
2023/06/15 03:56:53;;;;;;;;;17.00;13.00;;;;;;;;4977789;28;45275;-86
2023/06/15 03:59:18;;;;;;;;;9.75;9.50;;;;;;;;4977650;28;45322;-86
2023/06/15 04:01:44;;;;;;;;;17.00;14.33;;;;;;;;4977369;28;45249;-85
2023/06/15 04:04:12;;;;;;;;;12.25;12.00;;;;;;;;4976743;28;46249;-84
2023/06/15 04:06:37;;;;;;;;;16.00;10.00;;;;;;;;4977330;28;46029;-85
2023/06/15 04:09:03;;;;;;;;;16.00;11.00;;;;;;;;4977481;28;45665;-85
2023/06/15 04:11:28;;;;;;;;;15.50;13.75;;;;;;;;4977437;28;45390;-85
2023/06/15 04:13:53;;;;;;;;;14.33;14.00;;;;;;;;4977263;28;45563;-85
2023/06/15 04:16:18;;;;;;;;;13.00;12.67;;;;;;;;4977003;28;45378;-85
2023/06/15 04:18:44;;;;;;;;;19.00;11.33;;;;;;;;4977241;28;45557;-85
2023/06/15 04:21:10;;;;;;;;;17.50;11.25;;;;;;;;4976222;28;45685;-85
2023/06/15 04:23:36;;;;;;;;;16.00;12.33;;;;;;;;4977378;28;46492;-86
2023/06/15 04:26:03;;;;;;;;;18.50;12.50;;;;;;;;4977363;28;45382;-87
2023/06/15 04:28:28;;;;;;;;;14.75;11.50;;;;;;;;4976997;28;45455;-87
2023/06/15 04:31:06;;;;;;;;;14.75;11.75;;;;;;;;4977001;28;45601;-87
2023/06/15 04:33:32;;;;;;;;;14.75;11.75;;;;;;;;4977202;28;46470;-86
2023/06/15 04:35:57;;;;;;;;;20.50;12.00;;;;;;;;4977214;28;45407;-86
2023/06/15 04:38:22;;;;;;;;;18.50;12.25;;;;;;;;4977111;28;45428;-87
2023/06/15 04:40:48;;;;;;;;;15.67;12.67;;;;;;;;4977360;28;45574;-85
2023/06/15 04:43:13;;;;;;;;;14.33;12.00;;;;;;;;4976862;28;46295;-85
2023/06/15 04:45:38;;;;;;;;;20.33;16.00;;;;;;;;4976615;28;45445;-85
2023/06/15 04:48:03;;;;;;;;;16.33;12.67;;;;;;;;4976960;28;45353;-86
2023/06/15 04:50:30;;;;;;;;;14.75;11.50;;;;;;;;4976698;28;45426;-86
2023/06/15 04:52:55;;;;;;;;;15.50;14.50;;;;;;;;4976888;28;46540;-85
2023/06/15 04:55:20;;;;;;;;;19.75;13.50;;;;;;;;4976787;28;45402;-85
2023/06/15 04:57:46;;;;;;;;;17.00;14.00;;;;;;;;4975632;28;45400;-86
2023/06/15 05:00:13;;;;;;;;;17.25;13.50;;;;;;;;4976236;28;45513;-85
2023/06/15 05:02:38;;;;;;;;;17.25;12.50;;;;;;;;4976541;28;46995;-86
2023/06/15 05:05:04;;;;;;;;;15.75;12.25;;;;;;;;4976937;28;45443;-86
2023/06/15 05:07:29;;;;;;;;;21.75;14.00;;;;;;;;4976834;28;45318;-86
2023/06/15 05:09:55;;;;;;;;;17.00;12.67;;;;;;;;4976462;28;45563;-86
2023/06/15 05:12:20;;;;;;;;;21.75;15.25;;;;;;;;4976597;28;45630;-86
2023/06/15 05:14:45;;;;;;;;;21.75;19.25;;;;;;;;4975721;28;45530;-87
2023/06/15 05:17:10;;;;;;;;;15.67;13.67;;;;;;;;4976265;28;45386;-87
2023/06/15 05:19:36;;;;;;;;;12.00;10.00;;;;;;;;4976434;28;45370;-87
2023/06/15 05:22:02;;;;;;;;;23.33;14.00;;;;;;;;4974702;28;47961;-85
2023/06/15 05:24:27;;;;;;;;;17.75;13.25;;;;;;;;4976290;28;45365;-86
2023/06/15 05:26:52;;;;;;;;;20.00;15.00;;;;;;;;4976607;28;45274;-87
2023/06/15 05:29:18;;;;;;;;;16.00;13.00;;;;;;;;4975495;28;45572;-86
2023/06/15 05:31:43;;;;;;;;;21.00;16.50;;;;;;;;4977249;28;46451;-89
2023/06/15 05:34:09;;;;;;;;;17.75;14.25;;;;;;;;4977285;28;45379;-90
2023/06/15 05:36:34;;;;;;;;;21.75;16.25;;;;;;;;4959616;28;45297;-90
2023/06/15 05:39:00;;;;;;;;;15.67;11.67;;;;;;;;4977061;28;45449;-88
2023/06/15 05:41:25;;;;;;;;;17.50;14.75;;;;;;;;4976685;28;46167;-88
2023/06/15 05:43:50;;;;;;;;;15.67;13.00;;;;;;;;4953658;28;45394;-88
2023/06/15 05:46:16;;;;;;;;;18.33;16.00;;;;;;;;4976275;28;45398;-87
2023/06/15 05:48:41;;;;;;;;;19.67;15.00;;;;;;;;4958451;28;45610;-86
2023/06/15 05:51:06;;;;;;;;;15.00;13.33;;;;;;;;4976384;28;46717;-86
2023/06/15 05:53:31;;;;;;;;;14.50;13.50;;;;;;;;4976213;28;45291;-84
2023/06/15 05:55:56;;;;;;;;;19.67;14.00;;;;;;;;4976220;28;45445;-88
2023/06/15 05:58:22;;;;;;;;;18.67;13.33;;;;;;;;4975708;28;45546;-87
2023/06/15 06:00:47;;;;;;;;;14.00;10.00;;;;;;;;4975907;28;46396;-84
2023/06/15 06:03:12;;;;;;;;;13.67;11.00;;;;;;;;4975958;28;45327;-83
2023/06/15 06:05:37;;;;;;;;;17.00;13.33;;;;;;;;4975325;28;45504;-81
2023/06/15 06:08:03;;;;;;;;;15.33;13.00;;;;;;;;4975035;28;45272;-82
2023/06/15 06:10:28;;;;;;;;;18.75;13.50;;;;;;;;4975246;28;47249;-82
2023/06/15 06:12:53;;;;;;;;;15.33;11.33;;;;;;;;4974937;28;45367;-86
2023/06/15 06:15:18;;;;;;;;;10.33;9.33;;;;;;;;4975681;28;45377;-84
2023/06/15 06:17:43;;;;;;;;;15.67;7.67;;;;;;;;4975866;28;45339;-84
2023/06/15 06:20:09;;;;;;;;;8.33;8.33;;;;;;;;4975577;28;45450;-84
2023/06/15 06:22:34;;;;;;;;;7.00;6.25;;;;;;;;4975648;28;45271;-84
2023/06/15 06:24:59;;;;;;;;;6.00;6.00;;;;;;;;4975901;28;45311;-84
2023/06/15 06:27:24;;;;;;;;;10.00;6.33;;;;;;;;4977236;28;45247;-84
2023/06/15 06:29:50;;;;;;;;;7.00;5.33;;;;;;;;4978947;28;45573;-83
2023/06/15 06:32:15;;;;;;;;;6.00;5.00;;;;;;;;4979100;28;45198;-84
2023/06/15 06:34:40;;;;;;;;;4.67;4.00;;;;;;;;4979241;28;45458;-84
2023/06/15 06:37:05;;;;;;;;;7.00;4.00;;;;;;;;4977929;28;45644;-84
2023/06/15 06:39:31;;;;;;;;;7.67;5.00;;;;;;;;4978620;28;47208;-85
2023/06/15 06:41:56;;;;;;;;;8.75;5.00;;;;;;;;4978673;28;45331;-84
2023/06/15 06:44:21;;;;;;;;;5.33;3.67;;;;;;;;4979334;28;45322;-84
2023/06/15 06:46:49;;;;;;;;;5.67;4.00;;;;;;;;4963277;28;45524;-85
2023/06/15 06:49:15;;;;;;;;;4.75;4.00;;;;;;;;4978689;28;45566;-84
2023/06/15 06:51:40;;;;;;;;;5.25;4.50;;;;;;;;4978766;28;45394;-85
2023/06/15 06:54:05;;;;;;;;;4.33;4.33;;;;;;;;4979082;28;45475;-85
2023/06/15 06:56:30;;;;;;;;;5.50;5.00;;;;;;;;4978472;28;45443;-85
2023/06/15 06:58:56;;;;;;;;;7.33;5.00;;;;;;;;4978659;28;46444;-86
2023/06/15 07:01:21;;;;;;;;;6.25;5.50;;;;;;;;4961082;28;45652;-85
2023/06/15 07:03:46;;;;;;;;;7.33;5.00;;;;;;;;4979503;28;45421;-86
2023/06/15 07:06:11;;;;;;;;;10.00;5.33;;;;;;;;4975155;28;45441;-85
2023/06/15 07:08:36;;;;;;;;;5.33;3.33;;;;;;;;4977339;28;46395;-86
2023/06/15 07:11:02;;;;;;;;;5.75;3.50;;;;;;;;4978302;28;45569;-82
2023/06/15 07:13:27;;;;;;;;;6.75;3.75;;;;;;;;4978449;28;45315;-84
2023/06/15 07:15:54;;;;;;;;;3.75;3.75;;;;;;;;4977400;28;45410;-84
2023/06/15 07:18:20;;;;;;;;;4.00;4.00;;;;;;;;4977128;28;45471;-86
2023/06/15 07:20:45;;;;;;;;;7.25;4.75;;;;;;;;4978145;28;45612;-84
2023/06/15 07:23:10;;;;;;;;;8.00;4.67;;;;;;;;4978605;28;45326;-84
2023/06/15 07:25:35;;;;;;;;;5.33;4.67;;;;;;;;4977960;28;45336;-84
2023/06/15 07:28:18;;;;;;;;;5.67;5.00;;;;;;;;4979150;28;45465;-88
2023/06/15 07:30:46;;;;;;;;;6.75;5.75;;;;;;;;4978049;28;45739;-86
2023/06/15 07:33:11;;;;;;;;;5.25;5.00;;;;;;;;4964616;28;45627;-84
2023/06/15 07:35:36;;;;;;;;;7.75;4.00;;;;;;;;4974800;28;45428;-85
2023/06/15 07:38:01;;;;;;;;;11.75;6.25;;;;;;;;4975537;28;47587;-85
2023/06/15 07:40:27;;;;;;;;;5.33;4.67;;;;;;;;4956747;28;45478;-85
2023/06/15 07:42:52;;;;;;;;;1.00;1.00;;;;;;;;4976159;28;45379;-86
2023/06/15 07:45:17;;;;;;;;;6.67;5.00;;;;;;;;4977595;28;45572;-87
2023/06/15 07:47:42;;;;;;;;;3.50;3.00;;;;;;;;4976049;28;46158;-87
2023/06/15 07:50:08;;;;;;;;;5.25;3.25;;;;;;;;4975917;28;45563;-86
2023/06/15 07:52:33;;;;;;;;;4.00;4.00;;;;;;;;4976036;28;45446;-87
2023/06/15 07:54:59;;;;;;;;;4.00;3.00;;;;;;;;4958875;28;45417;-87
2023/06/15 07:57:25;;;;;;;;;4.00;3.00;;;;;;;;4959077;28;47375;-87
2023/06/15 07:59:50;;;;;;;;;2.25;2.25;;;;;;;;4976274;28;45597;-86
2023/06/15 08:02:16;;;;;;;;;5.00;5.00;;;;;;;;4975574;28;45327;-86
2023/06/15 08:04:41;;;;;;;;;3.67;3.00;;;;;;;;4973813;28;45512;-80
2023/06/15 08:07:06;;;;;;;;;7.00;3.33;;;;;;;;4978779;28;46078;-82
2023/06/15 08:09:31;;;;;;;;;4.00;2.00;;;;;;;;4975763;28;45731;-83
2023/06/15 08:11:57;;;;;;;;;6.33;5.00;;;;;;;;4975424;28;45478;-84
2023/06/15 08:14:22;;;;;;;;;7.00;5.00;;;;;;;;4958534;28;45660;-83
2023/06/15 08:16:47;;;;;;;;;4.00;4.00;;;;;;;;4976522;28;45522;-82
2023/06/15 08:19:13;;;;;;;;;6.25;3.00;;;;;;;;4976286;28;45442;-83
2023/06/15 08:21:41;;;;;;;;;5.00;5.00;;;;;;;;4975347;28;45588;-82
2023/06/15 08:24:06;;;;;;;;;6.50;4.00;;;;;;;;4976583;28;45665;-83
2023/06/15 08:26:31;;;;;;;;;4.67;3.00;;;;;;;;4975943;28;46199;-83
2023/06/15 08:28:56;;;;;;;;;3.33;3.33;;;;;;;;4976449;28;45776;-83
2023/06/15 08:31:22;;;;;;;;;3.00;3.00;;;;;;;;4958706;28;45555;-82
2023/06/15 08:33:48;;;;;;;;;4.75;2.25;;;;;;;;4975821;28;45621;-82
2023/06/15 08:36:13;;;;;;;;;3.00;3.00;;;;;;;;4976253;28;47189;-83
2023/06/15 08:38:38;;;;;;;;;5.50;3.00;;;;;;;;4975552;28;45499;-83
2023/06/15 08:41:04;;;;;;;;;4.00;3.50;;;;;;;;4975827;28;45481;-83
2023/06/15 08:43:30;;;;;;;;;4.00;4.00;;;;;;;;4975512;28;45488;-82
2023/06/15 08:45:58;;;;;;;;;8.25;4.50;;;;;;;;4975562;28;46420;-84
2023/06/15 08:48:23;;;;;;;;;3.00;3.00;;;;;;;;4976380;28;45285;-84
2023/06/15 08:50:49;;;;;;;;;4.50;3.00;;;;;;;;4975596;28;45380;-83
2023/06/15 08:53:16;;;;;;;;;2.25;2.25;;;;;;;;4976266;28;45347;-83
2023/06/15 08:55:42;;;;;;;;;4.25;3.00;;;;;;;;4975838;28;45446;-83
2023/06/15 08:58:10;;;;;;;;;4.00;3.00;;;;;;;;4975312;28;45371;-83
2023/06/15 09:00:35;;;;;;;;;3.75;3.75;;;;;;;;4975884;28;45362;-83
2023/06/15 09:03:02;;;;;;;;;3.00;2.25;;;;;;;;4976045;28;45736;-83
2023/06/15 09:05:28;;;;;;;;;5.00;3.00;;;;;;;;4975621;28;45505;-84
2023/06/15 09:07:53;;;;;;;;;6.00;3.00;;;;;;;;4975887;28;45312;-84
2023/06/15 09:10:19;;;;;;;;;4.00;3.00;;;;;;;;4975894;28;45334;-84
2023/06/15 09:13:02;;;;;;;;;3.00;3.00;;;;;;;;4975545;28;45327;-83
2023/06/15 09:15:28;;;;;;;;;2.00;2.00;;;;;;;;4973113;28;46238;-83
2023/06/15 09:17:54;;;;;;;;;1.50;1.50;;;;;;;;4984887;28;45447;-84
2023/06/15 09:20:21;;;;;;;;;4.25;3.00;;;;;;;;4990926;28;45414;-84
2023/06/15 09:22:47;;;;;;;;;5.00;4.00;;;;;;;;4975427;28;45375;-83
2023/06/15 09:25:13;;;;;;;;;5.00;3.00;;;;;;;;4975646;28;46647;-84
2023/06/15 09:27:38;;;;;;;;;3.50;2.00;;;;;;;;4975494;28;46039;-82
2023/06/15 09:30:07;;;;;;;;;3.67;3.67;;;;;;;;4975576;28;45378;-84
2023/06/15 09:32:32;;;;;;;;;3.25;3.25;;;;;;;;4974947;28;45482;-84
2023/06/15 09:34:58;;;;;;;;;3.00;3.00;;;;;;;;4975351;28;46926;-84
2023/06/15 09:37:24;;;;;;;;;4.50;3.00;;;;;;;;4975035;28;45426;-84
2023/06/15 09:39:52;;;;;;;;;3.00;3.00;;;;;;;;4957203;28;45435;-84
2023/06/15 09:42:17;;;;;;;;;4.00;3.00;;;;;;;;4975676;28;45587;-84
2023/06/15 09:44:43;;;;;;;;;4.33;3.67;;;;;;;;4975398;28;45418;-82
2023/06/15 09:47:14;;;;;;;;;4.00;1.00;;;;;;;;4975344;28;45316;-84
2023/06/15 09:49:43;;;;;;;;;6.00;4.00;;;;;;;;4974499;28;45696;-84
2023/06/15 09:52:12;;;;;;;;;4.25;2.00;;;;;;;;4975018;28;45348;-84
2023/06/15 09:54:38;;;;;;;;;5.50;3.50;;;;;;;;4975131;28;47492;-83
2023/06/15 09:57:04;;;;;;;;;4.75;3.50;;;;;;;;4975231;28;45757;-84
2023/06/15 09:59:29;;;;;;;;;5.00;3.00;;;;;;;;4973516;28;45291;-84
2023/06/15 10:01:55;;;;;;;;;3.25;2.50;;;;;;;;4974255;28;45401;-84
2023/06/15 10:04:23;;;;;;;;;3.00;3.00;;;;;;;;4974355;28;45418;-83
2023/06/15 10:06:55;;;;;;;;;5.00;2.75;;;;;;;;4974868;28;45381;-84
2023/06/15 10:09:25;;;;;;;;;6.00;3.00;;;;;;;;4974701;28;45391;-84
2023/06/15 10:11:52;;;;;;;;;3.00;3.00;;;;;;;;4974781;28;45403;-84
2023/06/15 10:14:23;;;;;;;;;3.25;3.00;;;;;;;;4974990;28;47854;-83
2023/06/15 10:16:51;;;;;;;;;6.00;4.25;;;;;;;;4977189;28;45614;-82
2023/06/15 10:19:18;;;;;;;;;4.50;3.75;;;;;;;;4957291;28;45502;-83
2023/06/15 10:21:44;;;;;;;;;5.25;3.00;;;;;;;;4975026;28;45510;-83
2023/06/15 10:24:16;;;;;;;;;4.25;3.00;;;;;;;;4973599;28;45565;-84
2023/06/15 10:26:41;;;;;;;;;2.75;2.75;;;;;;;;4974901;28;45541;-84
2023/06/15 10:29:11;;;;;;;;;5.75;3.50;;;;;;;;4959035;28;45868;-82
2023/06/15 10:31:43;;;;;;;;;5.50;3.75;;;;;;;;4972969;28;45539;-83
2023/06/15 10:34:13;;;;;;;;;7.75;4.00;;;;;;;;4968661;28;46379;-84
2023/06/15 10:36:43;;;;;;;;;4.50;2.25;;;;;;;;4960947;28;45789;-83
2023/06/15 10:39:32;;;;;;;;;5.25;2.00;;;;;;;;4959799;28;45624;-85
2023/06/15 10:41:57;;;;;;;;;3.75;2.25;;;;;;;;4966786;28;45237;-84
2023/06/15 10:44:30;;;;;;;;;3.33;3.00;;;;;;;;4974304;28;46793;-84
2023/06/15 10:47:04;;;;;;;;;3.75;2.75;;;;;;;;4970823;28;45451;-84
2023/06/15 10:49:31;;;;;;;;;6.00;3.75;;;;;;;;4969973;28;45376;-81
2023/06/15 10:51:56;;;;;;;;;4.00;2.75;;;;;;;;4974302;28;45477;-87
2023/06/15 10:54:22;;;;;;;;;4.67;3.33;;;;;;;;4973492;28;45522;-85
2023/06/15 10:56:50;;;;;;;;;4.00;3.75;;;;;;;;4973726;28;45351;-87
2023/06/15 10:59:35;;;;;;;;;4.25;3.50;;;;;;;;4974367;28;45395;-86
2023/06/15 11:02:00;;;;;;;;;6.00;4.00;;;;;;;;4956515;28;45524;-90
2023/06/15 11:04:31;;;;;;;;;3.00;2.50;;;;;;;;4974248;28;46388;-87
2023/06/15 11:06:57;;;;;;;;;4.50;4.50;;;;;;;;4974375;28;45339;-89
2023/06/15 11:09:24;;;;;;;;;5.75;4.50;;;;;;;;4974300;28;45408;-87
2023/06/15 11:11:50;;;;;;;;;5.00;4.00;;;;;;;;4973698;28;45558;-84
2023/06/15 11:14:18;;;;;;;;;5.00;4.75;;;;;;;;4977137;28;46497;-86
2023/06/15 11:16:43;;;;;;;;;6.00;5.00;;;;;;;;4977064;28;45855;-88
2023/06/15 11:19:11;;;;;;;;;6.33;4.33;;;;;;;;4977874;28;45450;-86
2023/06/15 11:21:40;;;;;;;;;5.00;4.75;;;;;;;;4977041;28;45462;-88
2023/06/15 11:24:06;;;;;;;;;4.50;4.25;;;;;;;;4960360;28;47301;-88
2023/06/15 11:26:32;;;;;;;;;4.00;3.00;;;;;;;;4977669;28;45465;-85
2023/06/15 11:28:58;;;;;;;;;6.00;3.50;;;;;;;;4976898;28;45433;-86
2023/06/15 11:31:23;;;;;;;;;5.00;4.00;;;;;;;;4976898;28;45304;-87
2023/06/15 11:33:49;;;;;;;;;5.00;4.25;;;;;;;;4977227;28;46585;-88
2023/06/15 11:36:14;;;;;;;;;5.25;3.75;;;;;;;;4977186;28;45355;-86
2023/06/15 11:38:39;;;;;;;;;5.67;4.67;;;;;;;;4977297;28;45348;-85
2023/06/15 11:41:08;;;;;;;;;3.33;3.00;;;;;;;;4977628;28;45509;-80
2023/06/15 11:43:45;;;;;;;;;7.00;4.25;;;;;;;;4985130;28;46069;-82
2023/06/15 11:46:15;;;;;;;;;9.75;5.25;;;;;;;;4977536;28;45870;-86
2023/06/15 11:48:41;;;;;;;;;4.50;4.25;;;;;;;;4977502;28;45421;-87
2023/06/15 11:51:08;;;;;;;;;5.00;5.00;;;;;;;;4977873;28;45454;-85
2023/06/15 11:53:33;;;;;;;;;6.25;4.75;;;;;;;;4976769;28;45557;-87
2023/06/15 11:55:59;;;;;;;;;3.50;3.00;;;;;;;;4977209;28;45408;-85
2023/06/15 11:58:25;;;;;;;;;4.00;4.00;;;;;;;;4977713;28;45374;-88
2023/06/15 12:00:50;;;;;;;;;4.00;4.00;;;;;;;;4972148;28;45474;-86
2023/06/15 12:03:16;;;;;;;;;4.00;4.00;;;;;;;;4972941;28;45386;-87
2023/06/15 12:05:41;;;;;;;;;5.50;5.00;;;;;;;;4974993;28;45735;-86
2023/06/15 12:08:07;;;;;;;;;5.00;5.00;;;;;;;;4958471;28;45601;-87
2023/06/15 12:10:35;;;;;;;;;6.00;3.25;;;;;;;;4975587;28;45376;-87
2023/06/15 12:13:00;;;;;;;;;5.00;3.25;;;;;;;;4972516;28;46325;-85
2023/06/15 12:15:28;;;;;;;;;4.25;4.25;;;;;;;;4975818;28;45438;-87
2023/06/15 12:17:55;;;;;;;;;5.00;4.00;;;;;;;;4976481;28;45386;-88
2023/06/15 12:20:21;;;;;;;;;9.00;5.25;;;;;;;;4959935;28;45561;-87
2023/06/15 12:22:49;;;;;;;;;4.50;4.00;;;;;;;;4976171;28;47082;-88
2023/06/15 12:25:15;;;;;;;;;6.75;4.50;;;;;;;;4975966;28;45741;-87
2023/06/15 12:27:41;;;;;;;;;7.50;4.25;;;;;;;;4973788;28;45473;-87
2023/06/15 12:30:07;;;;;;;;;6.50;5.00;;;;;;;;4975744;28;45584;-87
2023/06/15 12:32:32;;;;;;;;;6.50;5.00;;;;;;;;4975554;28;47116;-86
2023/06/15 12:35:00;;;;;;;;;4.00;4.00;;;;;;;;4975757;28;45332;-87
2023/06/15 12:37:27;;;;;;;;;7.00;6.00;;;;;;;;4976189;28;45442;-86
2023/06/15 12:39:52;;;;;;;;;7.50;5.25;;;;;;;;4975516;28;45640;-85
2023/06/15 12:42:20;;;;;;;;;6.67;6.00;;;;;;;;4958384;28;46076;-87
2023/06/15 12:44:46;;;;;;;;;6.50;4.25;;;;;;;;4974793;28;45437;-83
2023/06/15 12:47:11;;;;;;;;;6.50;4.25;;;;;;;;4976123;28;45295;-86
2023/06/15 12:49:36;;;;;;;;;7.33;4.67;;;;;;;;4975290;28;45268;-86
2023/06/15 12:52:02;;;;;;;;;4.33;4.33;;;;;;;;4975175;28;45406;-87
2023/06/15 12:54:27;;;;;;;;;7.00;4.25;;;;;;;;4974643;28;45447;-86
2023/06/15 12:56:52;;;;;;;;;9.67;5.00;;;;;;;;4976072;28;45414;-88
2023/06/15 12:59:17;;;;;;;;;5.50;5.00;;;;;;;;4975371;28;45497;-87
2023/06/15 13:01:43;;;;;;;;;7.00;7.00;;;;;;;;4974682;28;46296;-86
2023/06/15 13:04:08;;;;;;;;;6.00;3.00;;;;;;;;4958002;28;46124;-87
2023/06/15 13:06:33;;;;;;;;;5.25;3.50;;;;;;;;4975591;28;45372;-86
2023/06/15 13:08:59;;;;;;;;;6.75;5.75;;;;;;;;4975240;28;45515;-85
2023/06/15 13:11:26;;;;;;;;;5.00;3.33;;;;;;;;4974640;28;45589;-86
2023/06/15 13:13:51;;;;;;;;;8.75;4.00;;;;;;;;4974388;28;45394;-86
2023/06/15 13:16:17;;;;;;;;;5.25;4.00;;;;;;;;4975454;28;45407;-86
2023/06/15 13:18:42;;;;;;;;;8.67;3.67;;;;;;;;4957346;28;45516;-85
2023/06/15 13:21:08;;;;;;;;;5.75;4.50;;;;;;;;4977625;28;45560;-82
2023/06/15 13:23:33;;;;;;;;;7.75;4.75;;;;;;;;4964907;28;45577;-83
2023/06/15 13:25:58;;;;;;;;;4.33;3.67;;;;;;;;4973322;28;45317;-81
2023/06/15 13:28:24;;;;;;;;;6.33;4.33;;;;;;;;4975692;28;45701;-82
2023/06/15 13:30:49;;;;;;;;;7.33;4.33;;;;;;;;4975616;28;45522;-80
2023/06/15 13:33:14;;;;;;;;;4.50;4.25;;;;;;;;4990684;28;45509;-81
2023/06/15 13:35:40;;;;;;;;;7.67;5.00;;;;;;;;4995050;28;45389;-84
2023/06/15 13:38:05;;;;;;;;;5.25;3.00;;;;;;;;4981959;28;45510;-83
2023/06/15 13:40:31;;;;;;;;;6.33;5.00;;;;;;;;4974618;28;47700;-84
2023/06/15 13:42:56;;;;;;;;;4.33;3.00;;;;;;;;4975024;28;45418;-85
2023/06/15 13:45:24;;;;;;;;;6.00;3.33;;;;;;;;4975332;28;45710;-84
2023/06/15 13:47:49;;;;;;;;;4.50;3.00;;;;;;;;4975255;28;45334;-83
2023/06/15 13:50:15;;;;;;;;;5.75;5.75;;;;;;;;4974387;28;46014;-85
2023/06/15 13:52:42;;;;;;;;;7.50;5.25;;;;;;;;4975288;28;45904;-81
2023/06/15 13:55:08;;;;;;;;;4.00;4.00;;;;;;;;4975087;28;45398;-81
2023/06/15 13:57:34;;;;;;;;;4.25;4.25;;;;;;;;4972376;28;45512;-83
2023/06/15 13:59:59;;;;;;;;;4.00;4.00;;;;;;;;4971668;28;45374;-81
2023/06/15 14:02:24;;;;;;;;;5.00;4.33;;;;;;;;4975267;28;45648;-81
2023/06/15 14:04:50;;;;;;;;;3.33;3.00;;;;;;;;4975464;28;45404;-83
2023/06/15 14:07:15;;;;;;;;;5.00;4.00;;;;;;;;4975321;28;45366;-83
2023/06/15 14:09:42;;;;;;;;;4.67;4.00;;;;;;;;4974379;28;47195;-83
2023/06/15 14:12:08;;;;;;;;;5.00;4.00;;;;;;;;4975184;28;45300;-83
2023/06/15 14:14:34;;;;;;;;;4.75;3.00;;;;;;;;4974741;28;45391;-83
2023/06/15 14:17:00;;;;;;;;;6.50;5.25;;;;;;;;4974073;28;45673;-84
2023/06/15 14:19:25;;;;;;;;;4.67;4.67;;;;;;;;4978423;28;46453;-83
2023/06/15 14:21:51;;;;;;;;;3.50;3.00;;;;;;;;4974661;28;45439;-83
2023/06/15 14:24:17;;;;;;;;;5.75;5.00;;;;;;;;4974603;28;45656;-84
2023/06/15 14:26:42;;;;;;;;;5.75;4.00;;;;;;;;4975278;28;45438;-84